Time;durP1;ratioP1;P1;durP2;ratioP2;P2;SDS_P1;SDS_P2;PMS_P1;PMS_P2;Temp;Humidity;BMP_temperature;BMP_pressure;BME280_temperature;BME280_humidity;BME280_pressure;Samples;Min_cycle;Max_cycle;Signal;HPM_P1;HPM_P2
2022/04/21 00:00:41;;;;;;;11.98;8.23;;;11.60;62.50;;;;;;5017283;28;20036;-74
2022/04/21 00:03:07;;;;;;;13.63;7.97;;;11.50;62.60;;;;;;5019713;28;20103;-75
2022/04/21 00:05:34;;;;;;;14.45;8.00;;;11.50;62.90;;;;;;5017276;28;20049;-74
2022/04/21 00:08:00;;;;;;;12.70;8.15;;;11.50;62.90;;;;;;5022379;28;20049;-74
2022/04/21 00:10:27;;;;;;;11.43;7.03;;;11.40;63.10;;;;;;5019030;28;20487;-74
2022/04/21 00:12:56;;;;;;;13.20;7.75;;;11.40;63.20;;;;;;5019369;28;20063;-75
2022/04/21 00:15:23;;;;;;;10.40;7.45;;;11.30;63.20;;;;;;5025168;28;20108;-74
2022/04/21 00:17:49;;;;;;;11.55;7.05;;;11.30;63.30;;;;;;5021023;28;20507;-75
2022/04/21 00:20:15;;;;;;;13.38;8.65;;;11.30;63.40;;;;;;5015270;28;20034;-75
2022/04/21 00:25:28;;;;;;;10.65;7.32;;;11.20;63.70;;;;;;5016381;28;20116;-74
2022/04/21 00:27:57;;;;;;;11.85;7.13;;;11.10;63.70;;;;;;5022384;28;20559;-75
2022/04/21 00:30:23;;;;;;;12.93;8.30;;;11.20;63.80;;;;;;5014087;28;20042;-74
2022/04/21 00:32:48;;;;;;;11.65;7.07;;;11.20;63.70;;;;;;5016988;28;20040;-75
2022/04/21 00:35:16;;;;;;;11.02;7.38;;;11.10;63.70;;;;;;5016798;28;20266;-76
2022/04/21 00:37:49;;;;;;;12.45;8.52;;;11.10;63.70;;;;;;5022607;28;20396;-76
2022/04/21 00:40:16;;;;;;;11.13;7.82;;;11.10;64.00;;;;;;5018570;28;20036;-75
2022/04/21 00:42:42;;;;;;;12.30;7.03;;;11.00;64.10;;;;;;5017673;28;20467;-76
2022/04/21 00:45:09;;;;;;;12.90;7.70;;;11.00;64.20;;;;;;5019056;28;20040;-76
2022/04/21 00:47:35;;;;;;;12.65;7.70;;;11.00;64.20;;;;;;5018603;28;20050;-76
2022/04/21 00:50:01;;;;;;;15.60;8.05;;;11.00;64.40;;;;;;5019334;28;20542;-75
2022/04/21 00:52:27;;;;;;;12.20;8.40;;;10.90;64.40;;;;;;5026288;28;20041;-75
2022/04/21 00:54:53;;;;;;;11.82;7.75;;;10.90;64.50;;;;;;5021578;28;20381;-75
2022/04/21 00:57:19;;;;;;;12.65;8.10;;;10.80;64.70;;;;;;5021561;28;20512;-75
2022/04/21 00:59:46;;;;;;;12.73;8.70;;;10.90;64.80;;;;;;5020549;28;20041;-75
2022/04/21 01:04:59;;;;;;;12.07;7.93;;;10.80;65.00;;;;;;5018439;28;20536;-74
2022/04/21 01:07:25;;;;;;;12.10;7.65;;;10.80;65.10;;;;;;5012351;28;20492;-74
2022/04/21 01:09:54;;;;;;;14.50;7.60;;;10.80;65.10;;;;;;5015182;28;20045;-74
2022/04/21 01:12:20;;;;;;;14.20;7.78;;;10.80;65.20;;;;;;5020550;28;20461;-74
2022/04/21 01:14:45;;;;;;;12.27;7.97;;;10.70;65.20;;;;;;5024958;28;20044;-75
2022/04/21 01:17:11;;;;;;;13.10;7.82;;;10.70;65.20;;;;;;5016450;28;20033;-74
2022/04/21 01:19:37;;;;;;;11.05;8.07;;;10.70;65.30;;;;;;5021180;28;20480;-74
2022/04/21 01:22:03;;;;;;;11.40;7.78;;;10.70;65.10;;;;;;5020098;28;20025;-74
2022/04/21 01:24:29;;;;;;;10.43;7.15;;;10.60;65.20;;;;;;5013477;28;20519;-74
2022/04/21 01:26:57;;;;;;;12.23;7.80;;;10.60;65.30;;;;;;5024104;28;20056;-75
2022/04/21 01:29:22;;;;;;;12.20;8.25;;;10.60;65.40;;;;;;5018633;28;20573;-75
2022/04/21 01:31:49;;;;;;;12.27;8.05;;;10.60;65.30;;;;;;5022583;28;20045;-75
2022/04/21 01:34:15;;;;;;;12.20;8.00;;;10.50;65.40;;;;;;5019054;28;20392;-76
2022/04/21 01:42:16;;;;;;;;;;;10.40;65.80;;;;;;5018871;28;20184;-74
2022/04/21 01:44:43;;;;;;;22.58;8.40;;;10.40;65.80;;;;;;5017577;28;19917;-74
2022/04/21 01:47:09;;;;;;;12.43;7.93;;;10.40;65.80;;;;;;5014541;28;20037;-74
2022/04/21 01:49:35;;;;;;;13.15;8.18;;;10.40;65.70;;;;;;5021329;28;20045;-75
2022/04/21 01:52:00;;;;;;;11.20;7.75;;;10.40;65.60;;;;;;5020347;28;20041;-74
2022/04/21 01:54:26;;;;;;;13.00;8.52;;;10.40;65.50;;;;;;5021798;28;20046;-74
2022/04/21 01:56:52;;;;;;;12.98;7.97;;;10.40;65.60;;;;;;5028967;28;20508;-75
2022/04/21 01:59:17;;;;;;;13.45;8.50;;;10.40;65.50;;;;;;5011956;28;359594;-75
2022/04/21 02:01:43;;;;;;;13.00;7.95;;;10.40;65.50;;;;;;5028740;28;20401;-75
2022/04/21 02:04:09;;;;;;;13.68;8.05;;;10.40;65.40;;;;;;5020520;28;20742;-74
2022/04/21 02:06:34;;;;;;;14.55;8.60;;;10.50;65.30;;;;;;5015885;28;20042;-74
2022/04/21 02:09:00;;;;;;;12.77;7.80;;;10.40;65.20;;;;;;5021087;28;20584;-74
2022/04/21 02:11:27;;;;;;;11.98;7.68;;;10.50;65.10;;;;;;5019012;28;20065;-75
2022/04/21 02:13:53;;;;;;;11.60;8.38;;;10.50;65.20;;;;;;5018898;28;21846;-75
2022/04/21 02:16:19;;;;;;;13.52;8.57;;;10.40;65.20;;;;;;5027937;28;20528;-74
2022/04/21 02:18:44;;;;;;;16.92;8.82;;;10.40;65.20;;;;;;5025751;28;20762;-75
2022/04/21 02:21:10;;;;;;;14.32;8.77;;;10.50;65.10;;;;;;5018509;28;20042;-76
2022/04/21 02:23:36;;;;;;;11.50;8.07;;;10.50;65.10;;;;;;5020048;28;20141;-75
2022/04/21 02:26:01;;;;;;;14.40;9.25;;;10.40;65.10;;;;;;5020276;28;20033;-75
2022/04/21 02:28:27;;;;;;;13.35;8.93;;;10.40;65.30;;;;;;5018456;28;20045;-75
2022/04/21 02:30:52;;;;;;;12.00;8.40;;;10.40;65.50;;;;;;5021890;28;20045;-74
2022/04/21 02:33:18;;;;;;;11.25;8.20;;;10.30;65.70;;;;;;5015952;28;20136;-76
2022/04/21 02:35:45;;;;;;;13.10;8.57;;;10.20;65.90;;;;;;5023665;28;20396;-76
2022/04/21 02:38:10;;;;;;;14.63;9.30;;;10.20;66.10;;;;;;5022764;28;22498;-75
2022/04/21 02:40:36;;;;;;;12.18;8.50;;;10.20;66.20;;;;;;5022889;28;20038;-75
2022/04/21 02:43:02;;;;;;;13.00;9.30;;;10.10;66.30;;;;;;5016384;28;20029;-75
2022/04/21 02:45:27;;;;;;;12.32;8.82;;;10.10;66.50;;;;;;5015409;28;20067;-75
2022/04/21 02:47:53;;;;;;;16.08;8.85;;;10.10;66.50;;;;;;5016209;28;20049;-75
2022/04/21 02:50:19;;;;;;;12.77;9.73;;;10.10;66.70;;;;;;5018286;28;20033;-75
2022/04/21 02:52:46;;;;;;;12.75;9.38;;;10.00;67.00;;;;;;5025314;28;20147;-75
2022/04/21 02:57:57;;;;;;;13.10;9.20;;;9.90;67.40;;;;;;5021552;28;20173;-75
2022/04/21 03:00:23;;;;;;;15.80;9.82;;;9.90;67.40;;;;;;5017300;28;20112;-74
2022/04/21 03:02:49;;;;;;;12.27;8.73;;;9.90;67.60;;;;;;5021114;28;20735;-74
2022/04/21 03:05:14;;;;;;;13.77;9.40;;;9.80;67.60;;;;;;5014722;28;20037;-74
2022/04/21 03:07:40;;;;;;;12.05;9.23;;;9.70;68.00;;;;;;5020468;28;20233;-74
2022/04/21 03:10:06;;;;;;;14.07;9.05;;;9.70;68.00;;;;;;5015169;28;20057;-75
2022/04/21 03:12:32;;;;;;;13.32;9.63;;;9.70;68.00;;;;;;5020684;28;20468;-75
2022/04/21 03:14:58;;;;;;;13.85;9.82;;;9.70;68.10;;;;;;5014420;28;20030;-74
2022/04/21 03:17:24;;;;;;;13.10;9.32;;;9.60;68.40;;;;;;5019927;28;20030;-74
2022/04/21 03:19:50;;;;;;;12.65;9.07;;;9.60;68.30;;;;;;5021304;28;20107;-75
2022/04/21 03:25:06;;;;;;;15.03;9.43;;;9.60;68.60;;;;;;5017996;28;20068;-75
2022/04/21 03:27:31;;;;;;;13.68;9.73;;;9.60;68.60;;;;;;5021311;28;20029;-74
2022/04/21 03:29:57;;;;;;;14.95;9.40;;;9.60;68.60;;;;;;5023360;28;20401;-75
2022/04/21 03:32:23;;;;;;;13.95;9.85;;;9.50;68.70;;;;;;5021322;28;20037;-75
2022/04/21 03:34:49;;;;;;;12.20;9.02;;;9.50;68.80;;;;;;5023513;28;20045;-74
2022/04/21 03:37:15;;;;;;;14.35;9.70;;;9.50;68.80;;;;;;5015445;28;20140;-74
2022/04/21 03:39:42;;;;;;;15.57;9.57;;;9.50;68.80;;;;;;5022428;28;20044;-75
2022/04/21 03:42:20;;;;;;;13.20;9.27;;;9.50;68.70;;;;;;5017855;28;20029;-75
2022/04/21 03:44:46;;;;;;;12.45;9.48;;;9.40;68.80;;;;;;5020591;28;20033;-75
2022/04/21 03:47:12;;;;;;;17.10;9.73;;;9.40;69.00;;;;;;5019215;28;20029;-75
2022/04/21 03:49:37;;;;;;;15.27;10.13;;;9.30;69.20;;;;;;5011499;28;20053;-74
2022/04/21 03:52:03;;;;;;;15.55;10.27;;;9.30;69.40;;;;;;5028430;28;20492;-74
2022/04/21 03:54:29;;;;;;;13.23;9.73;;;9.20;69.80;;;;;;5016092;28;20041;-73
2022/04/21 03:56:55;;;;;;;14.65;9.65;;;9.20;69.80;;;;;;5018351;28;20471;-74
2022/04/21 03:59:25;;;;;;;15.15;10.20;;;9.10;70.20;;;;;;5016823;28;20049;-74
2022/04/21 04:01:51;;;;;;;14.82;9.57;;;9.10;70.20;;;;;;5024238;28;20137;-75
2022/04/21 04:04:17;;;;;;;15.63;10.80;;;9.10;70.30;;;;;;5016744;28;20038;-74
2022/04/21 04:12:11;;;;;;;14.97;10.40;;;9.10;70.60;;;;;;5020443;28;20634;-74
2022/04/21 04:14:38;;;;;;;16.65;10.80;;;9.10;70.70;;;;;;5018498;28;20085;-74
2022/04/21 04:17:08;;;;;;;13.90;10.55;;;9.10;70.70;;;;;;5016084;28;20044;-74
2022/04/21 04:19:34;;;;;;;14.73;10.68;;;9.00;70.70;;;;;;5015863;28;20046;-73
2022/04/21 04:22:00;;;;;;;13.52;10.48;;;9.00;70.90;;;;;;5022089;28;20040;-75
2022/04/21 04:24:26;;;;;;;15.77;11.02;;;9.00;70.90;;;;;;5022740;28;20026;-74
2022/04/21 04:26:52;;;;;;;15.07;9.88;;;8.90;71.00;;;;;;5019809;28;20056;-75
2022/04/21 04:29:22;;;;;;;17.45;11.50;;;8.90;71.10;;;;;;5019927;28;20434;-75
2022/04/21 04:31:52;;;;;;;14.80;11.20;;;8.90;71.20;;;;;;5019078;28;20088;-74
2022/04/21 04:34:18;;;;;;;14.32;10.32;;;8.80;71.60;;;;;;5011509;28;20047;-74
2022/04/21 04:36:45;;;;;;;14.57;10.50;;;8.80;71.60;;;;;;5015436;28;20594;-74
2022/04/21 04:39:11;;;;;;;16.63;11.20;;;8.80;71.70;;;;;;5010312;28;20038;-76
2022/04/21 04:44:21;;;;;;;13.33;11.03;;;8.80;71.70;;;;;;5006475;28;20092;-75
2022/04/21 04:46:47;;;;;;;15.90;10.52;;;8.80;71.80;;;;;;5010995;28;20034;-75
2022/04/21 04:49:13;;;;;;;16.17;11.02;;;8.80;71.90;;;;;;5013050;28;20504;-74
2022/04/21 04:51:41;;;;;;;15.05;11.45;;;8.80;71.70;;;;;;5016441;28;20036;-74
2022/04/21 04:54:08;;;;;;;17.85;11.57;;;8.80;72.00;;;;;;5021631;28;20048;-75
2022/04/21 04:56:38;;;;;;;15.23;12.40;;;8.80;72.20;;;;;;5015404;28;20485;-74
2022/04/21 04:59:04;;;;;;;15.80;11.35;;;8.70;72.30;;;;;;5019891;28;20081;-75
2022/04/21 05:01:32;;;;;;;16.55;11.75;;;8.70;72.50;;;;;;5016460;28;20030;-75
2022/04/21 05:04:06;;;;;;;15.38;12.45;;;8.80;72.60;;;;;;5012538;28;20042;-75
2022/04/21 05:06:36;;;;;;;17.30;11.50;;;8.80;72.50;;;;;;5014805;28;20037;-76
2022/04/21 05:09:07;;;;;;;14.80;11.63;;;8.80;72.50;;;;;;5015478;28;20128;-76
2022/04/21 05:11:36;;;;;;;15.93;11.80;;;8.90;72.20;;;;;;5007261;28;20038;-75
2022/04/21 05:14:03;;;;;;;14.77;11.38;;;8.90;72.30;;;;;;5005961;28;20033;-74
2022/04/21 05:16:29;;;;;;;16.45;12.18;;;8.90;72.30;;;;;;5006543;28;20034;-75
2022/04/21 05:18:56;;;;;;;16.02;10.95;;;8.90;72.40;;;;;;5008205;28;20045;-75
2022/04/21 05:21:22;;;;;;;16.98;11.35;;;8.90;72.30;;;;;;5009501;28;20041;-75
2022/04/21 05:23:48;;;;;;;20.70;12.55;;;9.00;72.20;;;;;;5007722;28;20033;-74
2022/04/21 05:26:17;;;;;;;14.15;11.60;;;9.10;72.10;;;;;;5017268;28;20040;-75
2022/04/21 05:28:44;;;;;;;15.85;11.55;;;9.10;72.10;;;;;;5011136;28;20045;-74
2022/04/21 05:31:10;;;;;;;16.55;12.05;;;9.10;72.10;;;;;;5021073;28;20087;-73
2022/04/21 05:33:37;;;;;;;16.08;11.63;;;9.20;72.00;;;;;;5022242;28;20548;-72
2022/04/21 05:36:04;;;;;;;16.48;11.85;;;9.30;72.00;;;;;;5017010;28;20034;-71
2022/04/21 05:38:31;;;;;;;16.27;12.50;;;9.40;71.80;;;;;;5027390;28;20040;-71
2022/04/21 05:40:57;;;;;;;17.77;12.50;;;9.40;71.40;;;;;;5022221;28;20096;-72
2022/04/21 05:43:45;;;;;;;17.95;12.70;;;9.50;71.40;;;;;;5018869;28;20448;-71
2022/04/21 05:46:12;;;;;;;16.73;11.90;;;9.50;71.40;;;;;;5018435;28;20145;-71
2022/04/21 05:48:39;;;;;;;18.52;15.25;;;9.50;71.30;;;;;;5009660;28;20050;-71
2022/04/21 05:51:05;;;;;;;16.92;12.13;;;9.50;71.40;;;;;;5011913;28;20273;-71
2022/04/21 05:53:36;;;;;;;16.80;11.60;;;9.60;71.40;;;;;;5018216;28;20617;-72
2022/04/21 05:56:04;;;;;;;16.65;12.82;;;9.60;71.20;;;;;;5011791;28;20469;-72
2022/04/21 05:58:30;;;;;;;16.35;12.07;;;9.70;71.30;;;;;;5012434;28;20061;-71
2022/04/21 06:00:57;;;;;;;17.20;12.23;;;9.70;71.40;;;;;;5007678;28;20048;-71
2022/04/21 06:03:22;;;;;;;14.77;12.25;;;9.70;71.50;;;;;;5012350;28;20119;-72
2022/04/21 06:05:48;;;;;;;19.00;12.20;;;9.80;71.50;;;;;;5019593;28;20470;-71
2022/04/21 06:08:14;;;;;;;16.95;12.48;;;9.90;71.20;;;;;;5015864;28;20041;-72
2022/04/21 06:10:40;;;;;;;17.95;13.32;;;10.00;71.00;;;;;;5019157;28;20056;-72
2022/04/21 06:13:06;;;;;;;19.90;12.65;;;10.00;70.90;;;;;;5017036;28;20041;-71
2022/04/21 06:15:32;;;;;;;17.23;13.27;;;10.10;70.80;;;;;;5017469;28;20107;-71
2022/04/21 06:18:01;;;;;;;18.55;12.90;;;10.10;70.80;;;;;;5019501;28;20030;-71
2022/04/21 06:20:28;;;;;;;17.05;13.32;;;10.20;70.50;;;;;;5021570;28;20129;-71
2022/04/21 06:22:54;;;;;;;18.80;11.95;;;10.40;70.40;;;;;;5020489;28;20029;-71
2022/04/21 06:25:21;;;;;;;16.45;12.68;;;10.40;70.00;;;;;;5018522;28;20037;-70
2022/04/21 06:27:47;;;;;;;15.13;11.30;;;10.60;69.60;;;;;;5017881;28;20045;-70
2022/04/21 06:30:13;;;;;;;15.63;11.98;;;10.70;69.30;;;;;;5011546;28;20084;-70
2022/04/21 06:32:38;;;;;;;15.63;11.75;;;10.80;68.80;;;;;;5015864;28;20536;-71
2022/04/21 06:35:05;;;;;;;17.63;11.63;;;11.00;68.60;;;;;;5020655;28;20032;-71
2022/04/21 06:37:30;;;;;;;17.23;13.05;;;11.10;67.90;;;;;;5022350;28;20060;-71
2022/04/21 06:39:56;;;;;;;15.68;11.50;;;11.20;67.90;;;;;;5017127;28;20044;-70
2022/04/21 06:42:22;;;;;;;16.58;11.25;;;11.30;67.50;;;;;;5015493;28;20045;-70
2022/04/21 06:50:16;;;;;;;15.13;10.73;;;11.60;66.30;;;;;;5017165;28;20088;-70
2022/04/21 06:52:42;;;;;;;16.98;11.32;;;11.80;65.70;;;;;;5015115;28;20054;-71
2022/04/21 06:55:08;;;;;;;15.57;10.10;;;12.00;65.10;;;;;;5009405;28;20044;-71
2022/04/21 06:57:33;;;;;;;16.90;10.52;;;12.20;65.00;;;;;;5022209;28;20042;-70
2022/04/21 06:59:59;;;;;;;13.40;9.88;;;12.30;64.30;;;;;;5017415;28;20060;-70
2022/04/21 07:02:31;;;;;;;14.32;9.18;;;12.50;62.80;;;;;;5022452;28;20053;-69
2022/04/21 07:05:22;;;;;;;15.63;10.10;;;12.60;63.10;;;;;;5020105;28;20072;-73
2022/04/21 07:07:49;;;;;;;13.88;9.45;;;12.80;62.30;;;;;;5012270;28;20107;-72
2022/04/21 07:10:15;;;;;;;20.20;10.02;;;13.00;62.10;;;;;;5019379;28;20076;-72
2022/04/21 07:12:41;;;;;;;14.50;9.25;;;13.20;61.70;;;;;;5018371;28;20033;-71
2022/04/21 07:15:08;;;;;;;10.63;8.63;;;13.30;60.90;;;;;;5018361;28;20045;-71
2022/04/21 07:17:34;;;;;;;14.60;9.00;;;13.50;60.60;;;;;;5016479;28;20193;-72
2022/04/21 07:20:03;;;;;;;12.90;8.80;;;13.60;59.80;;;;;;5015957;28;20037;-71
2022/04/21 07:22:29;;;;;;;11.95;8.68;;;13.70;59.70;;;;;;5012049;28;20057;-72
2022/04/21 07:24:55;;;;;;;13.30;9.18;;;13.70;58.60;;;;;;5011792;28;20038;-72
2022/04/21 07:27:22;;;;;;;11.60;8.02;;;13.90;59.20;;;;;;5014502;28;20481;-73
2022/04/21 07:29:48;;;;;;;13.75;8.57;;;14.10;57.40;;;;;;5010580;28;20041;-73
2022/04/21 07:32:14;;;;;;;11.30;8.23;;;14.20;56.30;;;;;;5013143;28;20042;-72
2022/04/21 07:34:40;;;;;;;13.55;8.13;;;14.30;56.20;;;;;;5022124;28;20052;-72
2022/04/21 07:37:08;;;;;;;13.75;8.27;;;14.30;55.80;;;;;;5019363;28;20041;-72
2022/04/21 07:39:38;;;;;;;10.45;7.68;;;14.50;56.20;;;;;;5013499;28;20037;-71
2022/04/21 07:42:05;;;;;;;12.13;7.55;;;14.60;55.30;;;;;;5019123;28;20029;-72
2022/04/21 07:44:34;;;;;;;11.43;7.65;;;14.70;54.80;;;;;;5018388;28;20405;-73
2022/04/21 07:46:59;;;;;;;10.68;7.93;;;14.90;54.00;;;;;;5017328;28;20045;-71
2022/04/21 07:54:54;;;;;;;13.45;7.70;;;15.40;52.70;;;;;;5016901;28;20084;-71
2022/04/21 07:57:20;;;;;;;9.40;7.20;;;15.40;52.20;;;;;;5013292;28;20168;-73
2022/04/21 07:59:47;;;;;;;10.30;7.70;;;15.60;52.50;;;;;;5015924;28;20479;-70
2022/04/21 08:02:15;;;;;;;9.05;6.82;;;15.70;51.80;;;;;;5012088;28;20041;-71
2022/04/21 08:04:44;;;;;;;12.48;7.38;;;15.80;51.10;;;;;;5019217;28;20109;-73
2022/04/21 08:07:10;;;;;;;10.90;7.03;;;15.90;50.40;;;;;;5018143;28;20084;-70
2022/04/21 08:09:36;;;;;;;11.32;6.88;;;16.00;51.00;;;;;;5015129;28;20129;-72
2022/04/21 08:12:02;;;;;;;12.57;7.25;;;16.10;50.00;;;;;;5020119;28;20092;-78
2022/04/21 08:14:28;;;;;;;10.23;7.32;;;16.10;50.00;;;;;;5014079;28;20516;-72
2022/04/21 08:16:54;;;;;;;12.75;7.30;;;16.40;50.80;;;;;;5014764;28;20457;-70
2022/04/21 08:19:20;;;;;;;10.35;6.55;;;16.30;49.90;;;;;;5010009;28;20134;-72
2022/04/21 08:21:47;;;;;;;10.40;6.55;;;16.30;49.70;;;;;;5015121;28;20033;-70
2022/04/21 08:32:46;;;;;;;9.23;5.95;;;16.60;48.00;;;;;;5017160;28;20088;-72
2022/04/21 08:35:14;;;;;;;9.13;5.75;;;16.70;47.30;;;;;;5021425;28;20187;-71
2022/04/21 08:37:41;;;;;;;9.70;5.55;;;17.00;47.60;;;;;;5019945;28;20029;-71
2022/04/21 08:40:10;;;;;;;8.65;5.30;;;17.00;46.80;;;;;;5018175;28;20045;-73
2022/04/21 08:42:40;;;;;;;8.73;5.20;;;17.20;46.90;;;;;;5018564;28;20030;-72
2022/04/21 08:45:12;;;;;;;12.68;5.80;;;17.30;46.00;;;;;;5015639;28;20167;-72
2022/04/21 08:47:46;;;;;;;8.40;5.68;;;17.40;44.90;;;;;;5012195;28;20041;-72
2022/04/21 08:50:14;;;;;;;10.80;6.00;;;17.60;44.90;;;;;;5011137;28;20049;-71
2022/04/21 08:52:41;;;;;;;9.20;5.85;;;17.60;44.80;;;;;;5019641;28;20060;-74
2022/04/21 08:55:08;;;;;;;10.02;5.95;;;17.80;45.50;;;;;;5021415;28;20038;-71
2022/04/21 08:57:37;;;;;;;11.80;5.68;;;17.60;43.70;;;;;;5017291;28;20036;-71
2022/04/21 09:00:07;;;;;;;9.68;5.43;;;17.60;44.70;;;;;;5015152;28;20129;-70
2022/04/21 09:02:45;;;;;;;14.23;5.45;;;17.60;44.10;;;;;;5017858;28;20038;-70
2022/04/21 09:05:11;;;;;;;8.65;5.72;;;17.70;43.90;;;;;;5016527;28;20069;-71
2022/04/21 09:07:44;;;;;;;11.10;5.82;;;17.70;44.20;;;;;;5022389;28;20068;-70
2022/04/21 09:10:11;;;;;;;10.85;6.00;;;17.80;45.00;;;;;;5016893;28;20049;-72
2022/04/21 09:12:52;;;;;;;10.30;5.70;;;17.80;44.40;;;;;;5015667;28;20701;-71
2022/04/21 09:15:20;;;;;;;10.70;5.97;;;18.00;44.90;;;;;;5016010;28;20045;-72
2022/04/21 09:17:56;;;;;;;13.73;6.63;;;18.00;44.00;;;;;;5017663;28;20091;-70
2022/04/21 09:20:24;;;;;;;16.00;5.97;;;18.10;44.40;;;;;;5017581;28;20041;-71
2022/04/21 09:22:53;;;;;;;12.25;6.80;;;18.30;43.50;;;;;;5015167;28;20073;-71
2022/04/21 09:25:26;;;;;;;8.45;5.72;;;18.60;43.30;;;;;;5021550;28;20035;-71
2022/04/21 09:27:53;;;;;;;8.02;5.95;;;18.40;43.30;;;;;;5037294;28;20536;-71
2022/04/21 09:30:19;;;;;;;12.43;6.35;;;18.60;43.70;;;;;;5016361;28;20026;-72
2022/04/21 09:33:00;;;;;;;8.95;6.20;;;18.70;42.70;;;;;;5014282;28;20489;-72
2022/04/21 09:35:27;;;;;;;9.90;5.65;;;18.70;42.60;;;;;;5013361;28;20033;-72
2022/04/21 09:37:56;;;;;;;8.98;5.40;;;18.70;43.50;;;;;;5017420;28;20034;-72
2022/04/21 09:40:27;;;;;;;9.98;5.43;;;18.80;42.70;;;;;;5017500;28;20037;-72
2022/04/21 09:43:03;;;;;;;8.60;5.20;;;18.60;41.70;;;;;;5017936;28;20040;-72
2022/04/21 09:48:23;;;;;;;9.20;5.22;;;19.00;41.30;;;;;;5017430;28;20051;-72
2022/04/21 09:50:57;;;;;;;8.88;5.00;;;18.50;41.90;;;;;;5018000;28;20046;-71
2022/04/21 09:53:24;;;;;;;10.88;5.75;;;18.60;41.70;;;;;;5017672;28;20038;-71
2022/04/21 09:56:10;;;;;;;8.90;5.18;;;18.80;41.60;;;;;;5022703;28;20065;-70
2022/04/21 09:58:39;;;;;;;9.05;5.03;;;19.10;41.40;;;;;;5022764;28;20107;-70
2022/04/21 10:01:05;;;;;;;8.27;4.93;;;19.10;40.90;;;;;;5025107;28;20041;-71
2022/04/21 10:03:34;;;;;;;9.27;5.13;;;19.10;40.90;;;;;;5024143;28;20547;-72
2022/04/21 10:06:01;;;;;;;7.85;4.20;;;19.30;40.80;;;;;;5025454;28;20041;-71
2022/04/21 10:08:29;;;;;;;8.73;4.40;;;19.40;39.30;;;;;;5021795;28;20053;-73
2022/04/21 10:10:55;;;;;;;11.80;5.28;;;19.70;39.40;;;;;;5021403;28;20034;-71
2022/04/21 10:13:22;;;;;;;11.52;5.03;;;19.70;38.60;;;;;;5019973;28;20042;-72
2022/04/21 10:15:50;;;;;;;8.30;4.70;;;19.70;38.70;;;;;;5018478;28;20045;-70
2022/04/21 10:18:16;;;;;;;6.45;4.10;;;19.80;39.40;;;;;;5023746;28;20084;-70
2022/04/21 10:20:44;;;;;;;9.13;4.80;;;19.50;39.50;;;;;;5019235;28;20125;-70
2022/04/21 10:23:15;;;;;;;9.55;4.68;;;19.70;38.60;;;;;;5011880;28;20042;-70
2022/04/21 10:25:42;;;;;;;8.60;5.18;;;19.90;38.60;;;;;;5012408;28;20496;-70
2022/04/21 10:28:34;;;;;;;8.00;5.25;;;19.90;38.10;;;;;;5014411;28;20552;-71
2022/04/21 10:31:29;;;;;;;10.98;5.00;;;20.10;38.50;;;;;;5015047;28;20034;-70
2022/04/21 10:33:59;;;;;;;;;;;20.30;38.20;;;;;;5012363;28;20347;-71
2022/04/21 10:36:38;;;;;;;9.15;3.80;;;20.10;37.70;;;;;;5015388;28;20010;-72
2022/04/21 10:39:26;;;;;;;8.60;5.07;;;19.80;37.60;;;;;;5014570;28;20068;-73
2022/04/21 10:42:12;;;;;;;11.07;4.15;;;20.00;38.20;;;;;;5013073;28;20034;-73
2022/04/21 10:44:56;;;;;;;7.15;3.55;;;20.10;38.40;;;;;;5011153;28;20038;-72
2022/04/21 10:47:30;;;;;;;6.75;3.92;;;20.30;38.00;;;;;;5012429;28;20041;-72
2022/04/21 10:50:00;;;;;;;7.90;4.50;;;20.10;38.00;;;;;;5012002;28;20136;-72
2022/04/21 10:57:48;;;;;;;9.32;4.68;;;19.80;37.70;;;;;;5011336;28;20084;-72
2022/04/21 11:00:24;;;;;;;8.15;4.15;;;19.40;38.10;;;;;;5013244;28;20048;-72
2022/04/21 11:03:00;;;;;;;8.80;5.30;;;19.90;38.30;;;;;;5010507;28;20038;-72
2022/04/21 11:05:33;;;;;;;11.50;4.70;;;19.60;38.60;;;;;;5009254;28;20068;-71
2022/04/21 11:08:02;;;;;;;8.10;4.80;;;19.40;39.30;;;;;;5014652;28;20041;-70
2022/04/21 11:10:42;;;;;;;9.35;4.80;;;19.90;39.10;;;;;;5014887;28;20283;-71
2022/04/21 11:13:18;;;;;;;10.27;5.63;;;20.50;38.00;;;;;;5023209;28;20087;-72
2022/04/21 11:15:53;;;;;;;8.82;5.18;;;20.70;37.10;;;;;;5024506;28;20425;-73
2022/04/21 11:18:27;;;;;;;9.88;5.18;;;21.00;37.80;;;;;;5025355;28;20068;-74
2022/04/21 11:21:26;;;;;;;8.32;5.40;;;21.00;35.10;;;;;;5020836;28;20037;-73
2022/04/21 11:23:52;;;;;;;8.85;5.68;;;20.80;35.20;;;;;;5018665;28;20059;-72
2022/04/21 11:26:25;;;;;;;9.32;4.97;;;20.10;36.30;;;;;;5022002;28;20041;-71
2022/04/21 11:28:51;;;;;;;8.15;5.13;;;20.00;37.70;;;;;;5014175;28;20154;-71
2022/04/21 11:31:20;;;;;;;10.27;5.93;;;20.40;38.00;;;;;;5011845;28;21133;-69
2022/04/21 11:33:46;;;;;;;10.45;5.72;;;20.60;36.80;;;;;;5009462;28;20448;-70
2022/04/21 11:36:14;;;;;;;9.98;5.80;;;19.90;37.50;;;;;;5013165;28;20041;-72
2022/04/21 11:38:42;;;;;;;7.88;5.38;;;20.20;37.90;;;;;;5008508;28;20563;-71
2022/04/21 11:41:09;;;;;;;8.55;5.45;;;20.50;37.10;;;;;;5011456;28;20238;-70
2022/04/21 11:43:35;;;;;;;11.45;5.75;;;20.70;36.80;;;;;;5019584;28;20482;-72
2022/04/21 11:46:06;;;;;;;11.00;7.00;;;19.90;37.30;;;;;;5020916;28;20076;-71
2022/04/21 11:48:33;;;;;;;9.20;5.72;;;19.20;38.70;;;;;;5023834;28;20661;-70
2022/04/21 11:51:00;;;;;;;10.63;6.63;;;19.60;38.20;;;;;;5018605;28;20480;-69
2022/04/21 11:53:33;;;;;;;9.13;5.68;;;19.60;38.60;;;;;;5024125;28;20046;-70
2022/04/21 11:55:59;;;;;;;11.38;5.60;;;19.60;37.20;;;;;;5021153;28;20033;-71
2022/04/21 11:58:31;;;;;;;11.00;6.07;;;19.30;38.00;;;;;;5016844;28;20053;-72
2022/04/21 12:06:48;;;;;;;8.73;5.60;;;20.30;36.20;;;;;;5001998;28;20625;-70
2022/04/21 12:09:21;;;;;;;11.40;5.57;;;20.10;36.40;;;;;;5013299;28;20068;-72
2022/04/21 12:11:52;;;;;;;7.35;5.00;;;20.40;36.70;;;;;;5019731;28;20072;-70
2022/04/21 12:14:18;;;;;;;8.18;4.50;;;20.60;35.30;;;;;;5017478;28;20048;-71
2022/04/21 12:16:53;;;;;;;9.05;5.15;;;21.00;35.00;;;;;;5017646;28;20026;-71
2022/04/21 12:19:38;;;;;;;8.27;4.55;;;21.40;34.40;;;;;;5014907;28;20029;-70
2022/04/21 12:22:11;;;;;;;6.63;4.05;;;21.30;33.40;;;;;;5020217;28;20039;-70
2022/04/21 12:24:45;;;;;;;8.93;4.88;;;21.50;31.60;;;;;;5016714;28;20041;-71
2022/04/21 12:27:39;;;;;;;9.23;4.93;;;21.70;32.30;;;;;;5021576;28;20087;-72
2022/04/21 12:30:07;;;;;;;9.30;4.80;;;21.50;33.70;;;;;;5014149;28;20067;-71
2022/04/21 12:32:44;;;;;;;8.90;5.00;;;21.70;32.70;;;;;;5021431;28;20499;-74
2022/04/21 12:35:11;;;;;;;9.02;5.05;;;21.80;32.90;;;;;;5017658;28;20064;-72
2022/04/21 12:37:39;;;;;;;12.38;6.30;;;21.60;33.60;;;;;;5018749;28;20066;-71
2022/04/21 12:40:08;;;;;;;9.35;5.85;;;21.10;34.10;;;;;;5018663;28;20529;-69
2022/04/21 12:42:34;;;;;;;10.27;6.00;;;21.00;35.10;;;;;;5022542;28;20072;-71
2022/04/21 12:45:01;;;;;;;8.88;5.28;;;21.00;33.90;;;;;;5017263;28;20042;-70
2022/04/21 12:47:27;;;;;;;12.43;6.25;;;21.20;35.20;;;;;;5015274;28;20053;-72
2022/04/21 12:50:12;;;;;;;13.18;6.38;;;21.50;34.20;;;;;;5020216;28;20139;-72
2022/04/21 12:52:45;;;;;;;10.40;6.00;;;21.70;33.40;;;;;;5017479;28;20505;-73
2022/04/21 12:55:21;;;;;;;13.63;6.30;;;21.70;32.60;;;;;;5020071;28;20034;-73
2022/04/21 12:58:09;;;;;;;11.38;6.13;;;21.20;33.20;;;;;;5020914;28;20061;-71
2022/04/21 13:00:38;;;;;;;9.00;5.47;;;21.20;33.90;;;;;;5016705;28;20103;-71
2022/04/21 13:03:04;;;;;;;9.15;5.25;;;21.00;33.30;;;;;;5020723;28;20095;-71
2022/04/21 13:05:30;;;;;;;12.20;5.95;;;20.60;33.90;;;;;;5023640;28;20450;-72
2022/04/21 13:07:57;;;;;;;9.70;6.15;;;20.80;33.10;;;;;;5019949;28;20408;-73
2022/04/21 13:10:22;;;;;;;10.82;5.70;;;21.00;33.80;;;;;;5019927;28;20650;-72
2022/04/21 13:12:48;;;;;;;9.77;5.95;;;21.30;31.80;;;;;;5020768;28;20045;-73
2022/04/21 13:15:14;;;;;;;9.30;5.65;;;21.50;31.50;;;;;;5017508;28;20152;-71
2022/04/21 13:17:40;;;;;;;9.02;5.50;;;21.50;31.30;;;;;;5019023;28;20037;-72
2022/04/21 13:20:07;;;;;;;12.43;5.35;;;20.90;31.70;;;;;;5018336;28;20026;-72
2022/04/21 13:22:32;;;;;;;9.65;5.30;;;21.10;31.80;;;;;;5024486;28;20060;-72
2022/04/21 13:24:58;;;;;;;11.18;6.15;;;21.40;30.80;;;;;;5014621;28;20050;-71
2022/04/21 13:27:26;;;;;;;12.40;6.38;;;21.60;31.10;;;;;;5028306;28;20141;-71
2022/04/21 13:29:53;;;;;;;10.35;6.00;;;21.60;31.70;;;;;;5023254;28;20052;-73
2022/04/21 13:35:05;;;;;;;11.68;5.88;;;21.50;30.50;;;;;;5021778;28;20252;-71
2022/04/21 13:37:31;;;;;;;10.63;5.63;;;20.60;32.00;;;;;;5016663;28;20041;-72
2022/04/21 13:39:57;;;;;;;10.23;5.47;;;21.00;33.00;;;;;;5023788;28;20571;-71
2022/04/21 13:42:22;;;;;;;12.38;6.32;;;20.30;32.50;;;;;;5021616;28;20112;-71
2022/04/21 13:44:48;;;;;;;10.48;5.90;;;20.50;32.60;;;;;;5016309;28;20447;-73
2022/04/21 13:47:14;;;;;;;11.45;6.35;;;20.70;32.10;;;;;;5018304;28;20061;-73